Time;durP1;ratioP1;P1;durP2;ratioP2;P2;SDS_P1;SDS_P2;PMS_P1;PMS_P2;Temp;Humidity;BMP_temperature;BMP_pressure;BME280_temperature;BME280_humidity;BME280_pressure;Samples;Min_cycle;Max_cycle;Signal;HPM_P1;HPM_P2
2022/12/06 00:01:25;;;;;;;55.85;31.50;;;;;;;1.51;88.52;100587.13;1725181;83;25596;-57
2022/12/06 00:03:56;;;;;;;56.88;30.82;;;;;;;1.52;88.58;100586.09;1725246;83;25649;-58
2022/12/06 00:06:28;;;;;;;57.30;30.50;;;;;;;1.50;88.49;100586.86;1725214;82;25443;-58
2022/12/06 00:08:57;;;;;;;59.30;29.95;;;;;;;1.51;88.51;100584.99;1725213;83;27528;-58
2022/12/06 00:11:29;;;;;;;56.15;30.77;;;;;;;1.50;88.57;100577.53;1725211;83;25387;-58
2022/12/06 00:14:06;;;;;;;59.48;30.35;;;;;;;1.52;88.60;100578.09;1725219;82;25432;-58
2022/12/06 00:16:34;;;;;;;54.98;29.65;;;;;;;1.52;88.58;100574.09;1725161;83;25513;-58
2022/12/06 00:19:03;;;;;;;57.55;31.00;;;;;;;1.51;88.61;100576.99;1725177;83;25560;-56
2022/12/06 00:21:34;;;;;;;60.63;31.27;;;;;;;1.48;88.54;100568.94;1725359;83;28082;-58
2022/12/06 00:24:08;;;;;;;59.18;31.55;;;;;;;1.47;88.70;100557.48;1725076;83;25600;-57
2022/12/06 00:26:39;;;;;;;65.83;32.58;;;;;;;1.47;88.74;100566.80;1725158;82;25205;-58
2022/12/06 00:29:09;;;;;;;59.70;31.15;;;;;;;1.46;88.77;100564.38;1725135;82;25580;-58
2022/12/06 00:31:35;;;;;;;61.85;30.92;;;;;;;1.43;88.85;100566.19;1725222;82;25638;-55
2022/12/06 00:34:03;;;;;;;65.12;32.73;;;;;;;1.40;88.86;100550.70;1725090;83;27586;-55
2022/12/06 00:36:35;;;;;;;63.68;32.90;;;;;;;1.39;89.08;100562.40;1725008;83;25860;-54
2022/12/06 00:39:06;;;;;;;58.73;30.90;;;;;;;1.36;89.12;100561.01;1725171;83;25459;-57
2022/12/06 00:41:33;;;;;;;69.77;33.33;;;;;;;1.36;89.20;100565.01;1725135;82;25513;-57
2022/12/06 00:44:01;;;;;;;65.62;32.38;;;;;;;1.35;89.48;100559.41;1725107;82;25461;-55
2022/12/06 00:46:29;;;;;;;62.43;32.75;;;;;;;1.33;89.60;100558.85;1725029;82;27741;-56
2022/12/06 00:49:00;;;;;;;71.07;34.58;;;;;;;1.32;89.66;100549.77;1725218;83;25451;-57
2022/12/06 00:51:30;;;;;;;72.30;34.70;;;;;;;1.31;89.76;100552.93;1725175;83;25551;-58
2022/12/06 00:53:57;;;;;;;64.95;32.03;;;;;;;1.30;89.85;100552.13;1725132;82;26064;-58
2022/12/06 00:56:26;;;;;;;67.32;34.48;;;;;;;1.28;90.01;100546.23;1725160;83;25470;-58
2022/12/06 00:58:52;;;;;;;68.90;32.65;;;;;;;1.28;90.20;100548.11;1725061;83;27490;-57
2022/12/06 01:01:24;;;;;;;73.67;35.65;;;;;;;1.27;90.31;100541.95;1725033;83;25487;-58
2022/12/06 01:03:55;;;;;;;75.65;35.98;;;;;;;1.26;90.47;100552.34;1725115;82;25451;-58
2022/12/06 01:06:26;;;;;;;72.17;34.40;;;;;;;1.24;90.51;100545.62;1725201;83;25639;-59
2022/12/06 01:08:58;;;;;;;71.33;34.35;;;;;;;1.22;90.81;100545.86;1725197;82;25556;-58
2022/12/06 01:11:48;;;;;;;68.60;34.75;;;;;;;1.20;90.75;100545.30;1725153;83;27458;-58
2022/12/06 01:14:15;;;;;;;74.97;35.10;;;;;;;1.18;90.91;100540.73;1736056;82;25746;-57
2022/12/06 01:16:41;;;;;;;78.30;37.25;;;;;;;1.16;91.02;100533.51;1708206;84;25719;-57
2022/12/06 01:19:07;;;;;;;73.60;34.90;;;;;;;1.16;91.17;100524.69;1710793;83;25669;-57
2022/12/06 01:21:35;;;;;;;74.15;36.55;;;;;;;1.16;91.34;100520.69;1710727;83;25590;-57
2022/12/06 01:24:03;;;;;;;69.90;35.50;;;;;;;1.16;91.37;100526.02;1710708;83;28099;-56
2022/12/06 01:26:34;;;;;;;76.70;34.92;;;;;;;1.15;91.45;100513.77;1710682;83;25510;-57
2022/12/06 01:29:03;;;;;;;73.62;35.43;;;;;;;1.17;91.52;100508.46;1710739;83;25437;-56
2022/12/06 01:31:32;;;;;;;78.72;36.95;;;;;;;1.16;91.66;100502.04;1710719;83;25586;-54
2022/12/06 01:33:58;;;;;;;70.78;34.73;;;;;;;1.16;91.78;100506.86;1710928;83;25651;-57
2022/12/06 01:36:25;;;;;;;74.63;35.93;;;;;;;1.15;91.76;100501.24;1710747;83;27497;-57
2022/12/06 01:38:57;;;;;;;75.97;36.60;;;;;;;1.14;91.92;100504.94;1728888;82;25378;-57
2022/12/06 01:41:27;;;;;;;74.32;36.53;;;;;;;1.13;91.95;100503.34;1741607;82;25548;-57
2022/12/06 01:43:56;;;;;;;72.22;35.52;;;;;;;1.11;91.94;100503.58;1765176;81;25487;-58
2022/12/06 01:46:42;;;;;;;78.17;36.93;;;;;;;1.10;92.10;100500.63;1765281;81;25399;-58
2022/12/06 01:49:17;;;;;;;78.97;38.10;;;;;;;1.09;92.22;100499.02;1765104;81;27525;-58
2022/12/06 01:51:49;;;;;;;83.70;36.45;;;;;;;1.09;92.36;100494.20;1765701;79;25540;-58
2022/12/06 01:54:19;;;;;;;80.28;37.85;;;;;;;1.10;92.39;100501.95;1764769;81;25572;-58
2022/12/06 01:56:48;;;;;;;75.00;37.20;;;;;;;1.09;92.45;100500.36;1765037;81;25527;-58
2022/12/06 01:59:16;;;;;;;78.47;36.77;;;;;;;1.10;92.56;100494.49;1765149;81;25383;-58
2022/12/06 02:01:46;;;;;;;69.58;37.05;;;;;;;1.10;92.61;100490.50;1765051;81;27476;-58
2022/12/06 02:04:15;;;;;;;;;;;;;;;1.10;92.61;100485.97;1767640;81;25622;-59
2022/12/06 02:06:43;;;;;;;79.25;36.90;;;;;;;1.11;92.74;100482.27;1741483;81;25653;-58
2022/12/06 02:09:11;;;;;;;79.30;37.50;;;;;;;1.11;92.83;100483.59;1741115;81;25599;-56
2022/12/06 02:11:40;;;;;;;81.60;38.67;;;;;;;1.11;92.80;100476.14;1765094;81;25460;-55
2022/12/06 02:14:11;;;;;;;75.70;36.63;;;;;;;1.11;92.92;100471.61;1794621;79;27468;-55
2022/12/06 02:16:56;;;;;;;83.40;38.20;;;;;;;1.10;92.92;100470.52;1798772;79;25830;-58
2022/12/06 02:19:49;;;;;;;81.55;37.78;;;;;;;1.09;92.99;100473.72;1798311;79;25605;-55
2022/12/06 02:22:41;;;;;;;77.37;37.17;;;;;;;1.08;93.04;100470.75;1798778;79;25455;-55
2022/12/06 02:25:46;;;;;;;78.20;37.80;;;;;;;1.07;93.07;100463.83;1765084;81;25488;-56
2022/12/06 02:28:49;;;;;;;81.17;35.95;;;;;;;1.08;93.22;100461.96;1765487;81;27321;-55
2022/12/06 02:31:36;;;;;;;85.42;39.78;;;;;;;1.06;93.21;100460.87;1765016;81;25426;-55
2022/12/06 02:34:14;;;;;;;76.55;36.75;;;;;;;1.07;93.36;100459.83;1766342;81;25565;-55
2022/12/06 02:37:12;;;;;;;74.07;36.53;;;;;;;1.07;93.41;100463.83;1764238;81;25658;-56
2022/12/06 02:40:02;;;;;;;82.60;39.25;;;;;;;1.06;93.35;100456.88;1766304;81;25471;-56
2022/12/06 02:42:40;;;;;;;73.60;37.33;;;;;;;1.05;93.41;100457.91;1766208;81;27381;-55
2022/12/06 02:45:17;;;;;;;75.15;37.20;;;;;;;1.05;93.54;100455.25;1765851;81;25614;-55
2022/12/06 02:47:47;;;;;;;73.47;37.08;;;;;;;1.05;93.60;100444.59;1766241;81;25419;-58
2022/12/06 02:50:20;;;;;;;82.22;40.15;;;;;;;1.07;93.76;100442.52;1766206;81;25597;-55
2022/12/06 02:52:50;;;;;;;74.72;36.28;;;;;;;1.06;93.75;100441.42;1766267;81;25675;-56
2022/12/06 02:55:18;;;;;;;75.08;36.53;;;;;;;1.04;93.65;100434.17;1766226;81;27304;-57
2022/12/06 02:57:49;;;;;;;77.45;35.90;;;;;;;1.06;93.74;100427.57;1766133;81;25576;-55
2022/12/06 03:00:43;;;;;;;77.67;35.17;;;;;;;1.06;93.69;100429.44;1766275;81;25443;-55
2022/12/06 03:03:54;;;;;;;76.12;36.65;;;;;;;1.05;93.71;100425.14;1797227;79;25475;-55
2022/12/06 03:06:57;;;;;;;77.37;36.25;;;;;;;1.04;93.68;100428.34;1798413;79;25368;-54
2022/12/06 03:09:45;;;;;;;74.25;35.95;;;;;;;1.02;93.97;100426.45;1798245;79;27318;-55
2022/12/06 03:12:34;;;;;;;77.58;37.95;;;;;;;1.01;93.96;100418.70;1798792;79;25834;-54
2022/12/06 03:15:21;;;;;;;80.13;37.40;;;;;;;1.00;94.01;100416.54;1798209;79;25465;-55
2022/12/06 03:17:53;;;;;;;75.15;35.55;;;;;;;0.99;94.07;100414.11;1798081;79;25977;-54
2022/12/06 03:23:38;;;;;;;79.17;35.92;;;;;;;0.98;94.17;100409.85;1728971;83;28066;-57
2022/12/06 03:26:10;;;;;;;67.55;35.43;;;;;;;0.99;94.30;100413.61;1695906;84;25560;-57
2022/12/06 03:28:40;;;;;;;74.82;37.33;;;;;;;0.99;94.33;100410.12;1728973;83;25567;-57
2022/12/06 03:31:11;;;;;;;71.70;34.90;;;;;;;0.97;94.34;100398.41;1728975;82;25595;-57
2022/12/06 03:33:43;;;;;;;75.95;35.20;;;;;;;0.97;94.40;100398.41;1728919;82;25649;-58
2022/12/06 03:36:13;;;;;;;74.45;36.40;;;;;;;0.97;94.48;100401.56;1695977;84;27254;-57
2022/12/06 03:38:57;;;;;;;78.02;38.23;;;;;;;0.99;94.51;100399.46;1728703;83;25587;-57
2022/12/06 03:41:30;;;;;;;78.17;36.63;;;;;;;0.99;94.55;100400.80;1690429;84;25677;-55
2022/12/06 03:44:00;;;;;;;79.92;36.35;;;;;;;0.99;94.59;100404.28;1728782;83;25640;-58
2022/12/06 03:46:38;;;;;;;73.62;35.85;;;;;;;0.99;94.63;100408.78;1695883;84;25589;-57
2022/12/06 03:49:12;;;;;;;81.00;37.05;;;;;;;1.01;94.62;100410.17;1728763;83;27493;-57
2022/12/06 03:51:41;;;;;;;78.72;36.75;;;;;;;1.02;94.69;100409.64;1731664;82;25837;-56
2022/12/06 03:54:09;;;;;;;;;;;;;;;1.01;94.65;100401.38;1734499;82;25417;-58
2022/12/06 03:56:40;;;;;;;68.22;33.35;;;;;;;1.00;94.75;100393.09;1731878;82;25631;-56
2022/12/06 03:59:10;;;;;;;71.85;34.90;;;;;;;0.98;94.72;100390.67;1731972;82;25431;-57
2022/12/06 04:01:39;;;;;;;73.97;35.48;;;;;;;0.99;94.76;100402.13;1731871;82;29463;-54
2022/12/06 04:04:06;;;;;;;72.08;34.70;;;;;;;0.99;94.81;100390.14;1731966;82;35376;-57
2022/12/06 04:06:34;;;;;;;69.60;34.43;;;;;;;1.00;94.85;100383.23;1728791;82;25636;-56
2022/12/06 04:11:47;;;;;;;68.25;34.05;;;;;;;0.98;94.86;100376.56;1729025;83;25282;-56
2022/12/06 04:14:14;;;;;;;73.80;34.55;;;;;;;1.01;94.88;100380.08;1728775;82;27378;-57
2022/12/06 04:19:26;;;;;;;68.20;34.05;;;;;;;0.99;95.00;100384.81;1728838;83;25611;-57
2022/12/06 04:24:37;;;;;;;69.50;34.15;;;;;;;0.97;95.04;100369.60;1730613;82;25530;-56
2022/12/06 04:40:48;;;;;;;68.62;32.60;;;;;;;0.97;95.32;100365.11;1730599;82;27391;-54
2022/12/06 04:45:58;;;;;;;65.60;33.23;;;;;;;0.93;95.52;100364.76;1730614;82;25378;-57
2022/12/06 04:48:25;;;;;;;68.72;33.50;;;;;;;0.93;95.50;100370.62;1730523;82;35078;-57
2022/12/06 04:50:53;;;;;;;71.05;33.83;;;;;;;0.91;95.56;100358.87;1730585;82;25465;-56
2022/12/06 04:53:19;;;;;;;70.83;33.78;;;;;;;0.92;95.58;100363.16;1730494;82;27387;-53
2022/12/06 04:55:48;;;;;;;65.37;33.10;;;;;;;0.93;95.68;100358.63;1730444;82;25627;-56
2022/12/06 04:58:16;;;;;;;64.47;33.05;;;;;;;0.96;95.76;100352.03;1730654;82;25562;-56
2022/12/06 05:00:42;;;;;;;70.65;33.00;;;;;;;0.95;95.73;100348.53;1730503;82;25518;-56
2022/12/06 05:03:12;;;;;;;67.08;32.80;;;;;;;0.97;95.75;100346.45;1730594;82;25607;-57
2022/12/06 05:05:41;;;;;;;67.45;34.13;;;;;;;0.98;95.75;100347.26;1730545;82;27499;-55
2022/12/06 05:08:10;;;;;;;66.20;32.38;;;;;;;0.97;95.73;100348.30;1730567;82;25387;-57
2022/12/06 05:10:39;;;;;;;68.10;32.65;;;;;;;1.00;95.77;100355.80;1730607;82;25390;-56
2022/12/06 05:13:07;;;;;;;69.00;32.53;;;;;;;0.99;95.64;100353.67;1730301;82;25404;-54
2022/12/06 05:15:35;;;;;;;61.15;31.73;;;;;;;0.98;95.65;100343.27;1730592;82;25378;-57
2022/12/06 05:18:01;;;;;;;64.20;33.33;;;;;;;0.99;95.71;100338.20;1730544;82;27375;-56
2022/12/06 05:20:28;;;;;;;65.80;33.35;;;;;;;0.99;95.71;100332.36;1730493;82;25592;-57
2022/12/06 05:22:56;;;;;;;64.07;32.17;;;;;;;1.00;95.85;100323.84;1730424;81;25559;-56
2022/12/06 05:25:22;;;;;;;62.73;32.48;;;;;;;1.00;95.81;100313.98;1730505;82;25861;-58
2022/12/06 05:27:49;;;;;;;64.92;32.58;;;;;;;1.00;95.70;100318.52;1730494;82;25386;-56
2022/12/06 05:30:17;;;;;;;65.87;32.63;;;;;;;0.98;95.83;100317.42;1730492;82;27296;-57
2022/12/06 05:32:43;;;;;;;59.55;31.70;;;;;;;1.00;95.81;100310.52;1730498;82;25537;-56
2022/12/06 05:35:09;;;;;;;65.20;33.30;;;;;;;0.99;95.80;100313.72;1730488;82;25701;-57
2022/12/06 05:37:36;;;;;;;61.13;31.73;;;;;;;0.99;95.88;100305.73;1730460;82;25373;-53
2022/12/06 05:40:06;;;;;;;64.17;33.95;;;;;;;0.99;95.91;100304.40;1730554;82;25453;-57
2022/12/06 05:42:32;;;;;;;67.72;34.23;;;;;;;1.00;96.03;100302.00;1730611;82;27308;-57
2022/12/06 05:44:58;;;;;;;68.35;33.85;;;;;;;1.00;96.02;100299.33;1730353;82;25424;-54
2022/12/06 05:47:24;;;;;;;64.20;32.05;;;;;;;1.00;95.94;100306.53;1730474;82;25648;-57
2022/12/06 05:49:50;;;;;;;65.90;32.70;;;;;;;0.99;95.94;100300.41;1730453;82;25546;-56
2022/12/06 05:52:16;;;;;;;61.88;32.50;;;;;;;1.00;95.92;100305.19;1730502;82;25580;-54
2022/12/06 05:54:43;;;;;;;63.45;33.33;;;;;;;1.00;95.98;100303.33;1730458;82;27293;-57
2022/12/06 05:57:09;;;;;;;62.10;31.23;;;;;;;1.00;95.92;100307.33;1730484;82;25618;-55
2022/12/06 05:59:35;;;;;;;62.25;31.85;;;;;;;0.96;95.90;100303.55;1730462;82;25299;-56
2022/12/06 06:02:01;;;;;;;61.70;31.77;;;;;;;1.01;96.06;100304.16;1730483;82;25984;-56
2022/12/06 06:04:28;;;;;;;62.25;31.95;;;;;;;1.01;95.98;100302.82;1730489;82;25631;-57
2022/12/06 06:06:54;;;;;;;59.25;31.15;;;;;;;1.00;95.98;100304.66;1730471;82;27325;-58
2022/12/06 06:09:23;;;;;;;58.28;30.17;;;;;;;1.00;96.07;100299.33;1730431;82;25413;-54
2022/12/06 06:11:49;;;;;;;59.27;30.60;;;;;;;0.99;96.01;100298.24;1730632;82;25563;-56
2022/12/06 06:14:15;;;;;;;59.45;32.33;;;;;;;0.98;95.99;100296.11;1730422;82;25487;-56
2022/12/06 06:16:41;;;;;;;64.60;32.08;;;;;;;0.99;96.03;100299.57;1730485;82;25430;-57
2022/12/06 06:19:07;;;;;;;60.67;31.60;;;;;;;1.00;96.10;100291.34;1730467;82;27301;-57
2022/12/06 06:21:35;;;;;;;59.88;31.82;;;;;;;0.99;96.01;100288.92;1730374;82;25447;-57
2022/12/06 06:24:01;;;;;;;68.05;33.00;;;;;;;1.00;96.06;100291.34;1730450;82;25601;-56
2022/12/06 06:26:29;;;;;;;63.30;31.90;;;;;;;1.00;96.10;100282.02;1730412;82;25544;-58
2022/12/06 06:28:56;;;;;;;57.80;30.23;;;;;;;1.02;96.22;100287.93;1730486;82;25378;-57
2022/12/06 06:31:23;;;;;;;60.40;31.93;;;;;;;1.03;96.06;100284.73;1730506;82;27318;-57
2022/12/06 06:33:49;;;;;;;63.40;30.92;;;;;;;1.02;96.10;100286.59;1730409;82;25575;-58
2022/12/06 06:36:18;;;;;;;67.67;33.05;;;;;;;0.99;95.94;100279.09;1730405;82;25406;-54
2022/12/06 06:38:45;;;;;;;66.53;33.08;;;;;;;1.01;96.00;100280.98;1730606;82;25610;-54
2022/12/06 06:41:11;;;;;;;63.30;31.65;;;;;;;1.01;96.02;100280.98;1730506;82;25561;-58
2022/12/06 06:43:37;;;;;;;66.55;33.33;;;;;;;1.02;96.01;100279.11;1730470;82;26781;-54
2022/12/06 06:46:07;;;;;;;66.92;33.85;;;;;;;1.00;95.91;100280.69;1730393;82;25581;-57
2022/12/06 06:48:39;;;;;;;63.20;32.67;;;;;;;1.00;95.97;100281.22;1730464;82;25374;-54
2022/12/06 06:51:13;;;;;;;65.52;32.33;;;;;;;1.00;95.96;100285.22;1730486;82;26077;-54
2022/12/06 06:53:42;;;;;;;62.78;31.20;;;;;;;0.99;95.99;100279.09;1730592;82;25646;-53
2022/12/06 06:56:10;;;;;;;63.87;32.17;;;;;;;1.00;96.02;100279.89;1730549;82;27383;-54
2022/12/06 06:58:39;;;;;;;60.23;32.83;;;;;;;1.02;96.12;100276.45;1730598;82;25473;-53
2022/12/06 07:01:11;;;;;;;65.03;33.05;;;;;;;1.04;96.21;100280.49;1730691;82;25580;-56
2022/12/06 07:03:37;;;;;;;58.65;32.00;;;;;;;1.05;96.11;100282.62;1729993;82;25641;-53
2022/12/06 07:06:09;;;;;;;65.30;31.85;;;;;;;1.06;96.07;100286.91;1730052;82;25556;-57
2022/12/06 07:08:37;;;;;;;61.60;31.02;;;;;;;1.04;95.92;100288.98;1730678;82;28055;-55
2022/12/06 07:11:05;;;;;;;58.00;30.55;;;;;;;1.04;95.99;100283.16;1730645;82;25538;-56
2022/12/06 07:13:31;;;;;;;53.85;29.10;;;;;;;1.04;96.04;100280.49;1730686;82;25379;-53
2022/12/06 07:16:02;;;;;;;60.35;30.77;;;;;;;1.05;95.98;100278.63;1730693;82;25517;-54
2022/12/06 07:18:30;;;;;;;68.95;34.13;;;;;;;1.04;95.95;100276.50;1730709;82;25420;-57
2022/12/06 07:21:05;;;;;;;64.90;32.58;;;;;;;1.06;96.09;100273.59;1730677;82;27323;-54
2022/12/06 07:23:35;;;;;;;61.40;31.23;;;;;;;1.07;96.12;100267.19;1723625;82;25454;-55
2022/12/06 07:26:08;;;;;;;58.42;30.05;;;;;;;1.08;96.11;100270.95;1718933;83;25181;-56
2022/12/06 07:28:38;;;;;;;63.83;32.65;;;;;;;1.08;96.15;100267.48;1718975;83;25882;-56
2022/12/06 07:31:27;;;;;;;57.95;30.57;;;;;;;1.09;96.21;100259.75;1719059;83;25405;-58
2022/12/06 07:33:59;;;;;;;58.38;31.02;;;;;;;1.09;96.11;100261.09;1719138;83;27381;-53
2022/12/06 07:36:31;;;;;;;62.40;32.03;;;;;;;1.10;96.12;100259.52;1718937;83;25456;-54
2022/12/06 07:39:01;;;;;;;60.65;30.75;;;;;;;1.09;96.12;100255.76;1719119;83;25613;-58
2022/12/06 07:47:05;;;;;;;64.55;31.30;;;;;;;1.13;96.31;100266.22;1719107;83;28030;-58
2022/12/06 07:49:31;;;;;;;61.55;31.62;;;;;;;1.13;96.42;100266.75;1718852;83;25412;-55
2022/12/06 07:51:59;;;;;;;65.28;32.15;;;;;;;1.16;96.36;100258.24;1718976;83;25623;-56
2022/12/06 07:54:25;;;;;;;64.80;33.20;;;;;;;1.16;96.18;100263.57;1718913;83;25580;-59
2022/12/06 07:56:55;;;;;;;66.17;32.48;;;;;;;1.13;96.19;100254.23;1718933;83;25578;-58
2022/12/06 07:59:25;;;;;;;64.20;32.63;;;;;;;1.13;96.09;100259.56;1719133;83;27389;-59
2022/12/06 08:01:54;;;;;;;63.08;32.28;;;;;;;1.13;96.12;100262.75;1718907;83;25603;-56
2022/12/06 08:04:24;;;;;;;66.30;33.50;;;;;;;1.13;96.26;100264.09;1719001;83;25609;-57
2022/12/06 08:06:53;;;;;;;69.65;33.60;;;;;;;1.10;96.28;100258.17;1719019;83;25527;-52
2022/12/06 08:09:21;;;;;;;74.75;34.05;;;;;;;1.13;96.36;100252.90;1719131;83;25632;-55
2022/12/06 08:11:50;;;;;;;72.20;35.10;;;;;;;1.13;96.29;100250.77;1718993;83;27377;-55
2022/12/06 08:14:16;;;;;;;73.12;34.78;;;;;;;1.11;96.32;100254.47;1718977;83;25598;-54
2022/12/06 08:16:43;;;;;;;71.20;34.43;;;;;;;1.12;96.50;100252.61;1718960;83;25442;-54
2022/12/06 08:19:09;;;;;;;75.95;37.13;;;;;;;1.14;96.53;100255.82;1718850;83;25490;-54
2022/12/06 08:21:38;;;;;;;79.60;39.83;;;;;;;1.17;96.67;100245.21;1718997;83;25558;-55
2022/12/06 08:24:08;;;;;;;72.70;35.80;;;;;;;1.18;96.76;100249.50;1727030;82;29553;-52
2022/12/06 08:26:35;;;;;;;77.22;38.65;;;;;;;1.22;96.91;100243.41;1730538;82;25547;-55
2022/12/06 08:29:03;;;;;;;82.17;38.38;;;;;;;1.25;96.91;100248.25;1730602;82;25632;-55
2022/12/06 08:31:33;;;;;;;77.03;37.70;;;;;;;1.27;96.82;100252.80;1730628;82;25576;-52
2022/12/06 08:34:01;;;;;;;78.92;38.95;;;;;;;1.30;96.87;100247.52;1730753;82;25443;-54
2022/12/06 08:36:28;;;;;;;89.22;38.38;;;;;;;1.32;96.89;100241.40;1730624;82;27373;-52
2022/12/06 08:38:56;;;;;;;84.47;38.38;;;;;;;1.35;96.91;100239.58;1730548;82;25394;-55
2022/12/06 08:44:12;;;;;;;88.90;40.45;;;;;;;1.40;96.92;100236.97;1730605;82;25646;-54
2022/12/06 08:46:39;;;;;;;88.82;40.33;;;;;;;1.42;96.77;100233.52;1730605;82;25388;-54
2022/12/06 08:49:06;;;;;;;80.15;38.02;;;;;;;1.39;96.49;100228.69;1675128;85;27485;-55
2022/12/06 08:51:34;;;;;;;79.82;37.55;;;;;;;1.38;96.28;100227.59;1687070;85;25622;-55
2022/12/06 08:54:02;;;;;;;86.65;41.65;;;;;;;1.36;96.33;100219.84;1687208;84;25844;-55
2022/12/06 08:56:29;;;;;;;85.07;40.60;;;;;;;1.35;96.29;100226.25;1687142;85;25587;-57
2022/12/06 08:58:56;;;;;;;86.20;39.78;;;;;;;1.35;96.35;100225.45;1687202;85;25714;-57
2022/12/06 09:01:29;;;;;;;83.22;39.13;;;;;;;1.32;96.33;100219.28;1687150;85;27408;-56
2022/12/06 09:03:59;;;;;;;85.77;39.85;;;;;;;1.33;96.50;100220.88;1687112;85;25513;-54
2022/12/06 09:06:26;;;;;;;;;;;;;;;1.37;96.76;100224.14;1689686;85;25520;-53
2022/12/06 09:08:52;;;;;;;80.55;37.00;;;;;;;1.37;96.75;100220.14;1687136;85;25853;-55
2022/12/06 09:11:19;;;;;;;81.40;38.38;;;;;;;1.36;96.65;100217.72;1687243;84;25607;-54
2022/12/06 09:13:46;;;;;;;82.02;38.00;;;;;;;1.37;96.72;100212.68;1713302;82;29584;-55
2022/12/06 09:16:20;;;;;;;89.85;38.50;;;;;;;1.37;96.71;100212.14;1738066;82;25396;-53
2022/12/06 09:18:50;;;;;;;85.53;39.05;;;;;;;1.36;96.69;100205.73;1738216;82;25504;-56
2022/12/06 09:21:22;;;;;;;88.55;38.42;;;;;;;1.37;96.78;100199.35;1738164;82;25488;-57
2022/12/06 09:23:52;;;;;;;96.47;38.90;;;;;;;1.38;96.85;100200.44;1738030;82;25394;-56
2022/12/06 09:26:19;;;;;;;89.50;40.30;;;;;;;1.39;96.94;100194.03;1738096;82;27330;-55
2022/12/06 09:28:50;;;;;;;97.15;40.83;;;;;;;1.39;96.91;100188.70;1738056;82;25851;-54
2022/12/06 09:31:18;;;;;;;93.35;40.28;;;;;;;1.42;96.94;100184.75;1738193;82;25615;-56
2022/12/06 09:33:46;;;;;;;87.78;38.92;;;;;;;1.42;97.09;100186.08;1738143;82;25585;-55
2022/12/06 09:36:18;;;;;;;90.90;38.48;;;;;;;1.44;96.95;100191.42;1738189;82;25457;-56
2022/12/06 09:38:48;;;;;;;79.70;37.48;;;;;;;1.46;97.13;100186.67;1737709;82;27181;-56
2022/12/06 09:41:39;;;;;;;88.62;37.53;;;;;;;1.50;97.37;100194.97;1736653;82;26004;-53
2022/12/06 09:44:39;;;;;;;89.37;37.58;;;;;;;1.53;97.42;100182.45;1737121;82;25723;-55
2022/12/06 09:47:28;;;;;;;82.92;36.33;;;;;;;1.56;97.48;100177.95;1737547;82;25573;-56
2022/12/06 09:50:38;;;;;;;92.42;37.67;;;;;;;1.60;97.48;100168.41;1738290;82;25374;-54
2022/12/06 09:53:30;;;;;;;;;;;;;;;1.64;97.50;100170.04;1750293;82;27311;-56
2022/12/06 09:56:20;;;;;;;73.00;34.83;;;;;;;1.66;97.60;100166.59;1747717;82;25573;-52
2022/12/06 09:59:12;;;;;;;80.83;35.95;;;;;;;1.67;97.70;100157.54;1747755;82;25647;-56
2022/12/06 10:02:16;;;;;;;84.20;36.48;;;;;;;1.71;97.70;100159.17;1728540;83;25453;-57
2022/12/06 10:05:09;;;;;;;74.72;34.75;;;;;;;1.72;97.59;100153.59;1728577;83;25493;-55
2022/12/06 10:07:59;;;;;;;85.35;36.75;;;;;;;1.68;97.30;100149.80;1728320;83;27960;-57
2022/12/06 10:10:40;;;;;;;77.87;34.80;;;;;;;1.70;97.29;100151.68;1727919;83;25680;-53
2022/12/06 10:13:48;;;;;;;85.42;36.40;;;;;;;1.68;97.26;100147.93;1728576;83;25638;-55
2022/12/06 10:16:26;;;;;;;90.70;37.10;;;;;;;1.70;97.35;100145.02;1728759;83;25549;-57
2022/12/06 10:19:20;;;;;;;94.52;37.80;;;;;;;1.70;97.18;100137.55;1728483;83;25522;-54
2022/12/06 10:22:06;;;;;;;89.13;36.80;;;;;;;1.67;97.20;100137.00;1663644;86;29522;-54
2022/12/06 10:24:48;;;;;;;83.37;36.10;;;;;;;1.67;97.18;100129.55;1656260;85;25581;-56
2022/12/06 10:27:34;;;;;;;89.40;37.10;;;;;;;1.70;97.28;100126.88;1638038;87;25611;-57
2022/12/06 10:30:09;;;;;;;94.40;38.38;;;;;;;1.68;97.31;100115.14;1606959;89;25697;-51
2022/12/06 10:33:09;;;;;;;92.53;38.17;;;;;;;1.70;97.26;100112.22;1606860;89;25750;-56
2022/12/06 10:35:44;;;;;;;90.05;36.70;;;;;;;1.70;97.43;100102.88;1610064;89;27449;-61
2022/12/06 10:38:24;;;;;;;93.52;38.75;;;;;;;1.73;97.49;100097.84;1603703;89;25625;-55
2022/12/06 10:41:14;;;;;;;98.55;42.65;;;;;;;1.75;97.73;100094.39;1601017;89;25532;-56
2022/12/06 10:44:13;;;;;;;99.07;40.95;;;;;;;1.79;97.82;100094.17;1601272;89;25643;-56
2022/12/06 10:47:06;;;;;;;102.87;38.00;;;;;;;1.82;97.76;100094.17;1601279;89;25521;-53
2022/12/06 10:49:58;;;;;;;97.82;40.30;;;;;;;1.84;97.82;100090.20;1601321;89;27658;-55
2022/12/06 10:52:44;;;;;;;91.08;37.88;;;;;;;1.86;97.76;100093.41;1600916;89;27167;-50
2022/12/06 10:55:17;;;;;;;97.00;38.30;;;;;;;1.89;97.98;100089.95;1601299;89;25454;-47
2022/12/06 10:57:52;;;;;;;104.12;41.53;;;;;;;1.93;98.00;100083.86;1603438;85;25533;-48
2022/12/06 11:00:23;;;;;;;93.82;37.63;;;;;;;1.98;98.24;100077.23;1688044;85;25462;-54
2022/12/06 11:03:02;;;;;;;101.47;40.05;;;;;;;2.01;97.95;100075.39;1688168;85;27324;-56
2022/12/06 11:05:59;;;;;;;104.10;38.60;;;;;;;2.03;97.94;100065.25;1722175;83;31382;-53
2022/12/06 11:08:40;;;;;;;97.02;40.75;;;;;;;2.04;97.91;100062.88;1724008;83;25600;-52
2022/12/06 11:11:24;;;;;;;97.62;39.10;;;;;;;2.08;97.73;100062.33;1723750;83;27516;-52
2022/12/06 11:14:05;;;;;;;89.45;36.85;;;;;;;2.08;97.57;100062.33;1724357;83;25564;-55
2022/12/06 11:16:52;;;;;;;87.33;37.93;;;;;;;2.04;97.25;100056.20;1724323;83;27321;-54
2022/12/06 11:19:48;;;;;;;100.60;38.25;;;;;;;2.01;97.20;100059.38;1724199;83;25391;-51
2022/12/06 11:22:43;;;;;;;94.20;36.38;;;;;;;2.01;97.13;100056.71;1724280;82;25611;-53
2022/12/06 11:25:33;;;;;;;82.22;36.10;;;;;;;2.00;97.26;100061.76;1734740;82;25901;-50
2022/12/06 11:28:20;;;;;;;88.05;36.53;;;;;;;1.97;97.14;100059.60;1738063;82;25556;-51
2022/12/06 11:30:42;;;;;;;79.80;34.30;;;;;;;1.98;97.40;100060.42;1737464;82;27409;-53
2022/12/06 11:33:10;;;;;;;71.12;32.08;;;;;;;1.95;97.32;100048.93;1738259;82;25396;-51
2022/12/06 11:35:36;;;;;;;71.22;32.10;;;;;;;1.94;97.26;100040.13;1738386;82;25636;-52
2022/12/06 11:38:06;;;;;;;65.97;30.02;;;;;;;1.94;97.24;100043.31;1738280;82;25625;-53
2022/12/06 11:40:47;;;;;;;68.55;29.85;;;;;;;1.90;97.18;100031.56;1738448;82;25649;-52
2022/12/06 11:43:25;;;;;;;75.22;30.23;;;;;;;1.91;97.27;100031.30;1738472;82;28016;-54
2022/12/06 11:45:54;;;;;;;71.07;30.25;;;;;;;1.90;97.29;100027.02;1738385;82;25657;-51
2022/12/06 11:48:27;;;;;;;74.85;30.75;;;;;;;1.91;97.45;100029.97;1738613;82;25672;-51
2022/12/06 11:50:55;;;;;;;71.12;31.85;;;;;;;1.92;97.47;100024.09;1738555;82;25463;-51
2022/12/06 11:53:39;;;;;;;74.58;31.77;;;;;;;1.91;97.49;100025.97;1738507;82;25618;-53
2022/12/06 11:56:21;;;;;;;75.20;35.17;;;;;;;1.92;97.51;100026.77;1723404;83;27375;-53
2022/12/06 11:59:19;;;;;;;81.00;35.52;;;;;;;1.94;97.73;100026.80;1718446;83;25801;-55
2022/12/06 12:01:51;;;;;;;59.60;24.90;;;;;;;1.98;98.13;100025.20;1723505;83;25647;-54
2022/12/06 12:04:32;;;;;;;74.17;35.80;;;;;;;2.02;98.51;100022.82;1723419;83;25544;-54
2022/12/06 12:07:19;;;;;;;85.28;34.23;;;;;;;2.05;98.39;100023.64;1722844;83;25642;-53
2022/12/06 12:09:58;;;;;;;83.12;33.13;;;;;;;2.08;98.16;100020.98;1723464;83;27759;-53
2022/12/06 12:15:22;;;;;;;73.05;33.25;;;;;;;2.06;97.92;100015.92;1723426;83;25465;-52
2022/12/06 12:17:53;;;;;;;80.83;35.48;;;;;;;2.09;97.90;100013.25;1722048;83;25754;-52
2022/12/06 12:20:30;;;;;;;88.67;35.38;;;;;;;2.10;97.94;100007.66;1722892;83;25439;-54
2022/12/06 12:23:20;;;;;;;75.40;33.45;;;;;;;2.12;98.09;100003.41;1723353;83;27506;-52
2022/12/06 12:26:03;;;;;;;80.90;32.85;;;;;;;2.14;98.06;100001.27;1721359;83;25686;-54
2022/12/06 12:28:34;;;;;;;74.75;33.20;;;;;;;2.14;97.86;99994.60;1721200;83;25646;-54